Период от 14.04.2021 до 15.04.2021

Показания с 14.04.2021 по 15.04.2021 ДКХЗ_показания_за_период_14.04.2021-15.04.2021.csv
Пост Дата/время Пыль PM2,5 Пыль PM10 CO SO2 NO2 NO H2S NH3 Направление ветра в градусах Ветер Температура Давление Влажность Осадки
PAN1 00:00:05 14.04.2021 0.0127 0.0144 0.6441 0.0064 0.0478 0.0069 0.0017 0.0060 77.8500 1.4900 9.6250 0.0060 756.5850 70.6650
PAN1 00:20:05 14.04.2021 0.0222 0.0248 0.6958 0.0126 0.0470 0.0081 0.0020 0.0058 80.4500 1.6000 9.6000 0.0058 756.5000 71.1400
PAN1 00:40:04 14.04.2021 0.0250 0.0278 0.7725 0.0181 0.0469 0.0063 0.0023 0.0051 97.7000 1.8650 9.5250 0.0051 756.3900 71.5500
PAN1 01:00:04 14.04.2021 0.0327 0.0361 0.7758 0.0207 0.0456 0.0068 0.0014 0.0046 103.8500 2.0700 9.3200 0.0046 756.2150 72.8450
PAN1 01:20:04 14.04.2021 0.0475 0.0538 0.7289 0.0154 0.0451 0.0055 0.0021 0.0050 78.4000 1.4800 8.9250 0.0050 756.1250 74.4500
PAN1 02:00:05 14.04.2021 0.0343 0.0378 0.7942 0.0188 0.0464 0.0074 0.0021 0.0054 96.8571 1.5476 8.4000 0.0054 756.0380 76.4524
PAN1 02:20:04 14.04.2021 0.0376 0.0417 0.8314 0.0240 0.0471 0.0069 0.0024 0.0039 100.2500 1.9650 8.2350 0.0039 755.9700 77.1600
PAN1 02:40:05 14.04.2021 0.0247 0.0283 0.7812 0.0233 0.0460 0.0066 0.0020 0.0037 113.4500 1.6100 7.9200 0.0037 755.8800 78.3350
PAN1 03:00:05 14.04.2021 0.0215 0.0246 0.7533 0.0207 0.0459 0.0066 0.0020 0.0044 97.9500 1.2300 7.7000 0.0044 755.9000 79.3400
PAN1 03:20:04 14.04.2021 0.0190 0.0215 0.7206 0.0193 0.0442 0.0102 0.0020 0.0042 129.6000 0.6550 7.5700 0.0042 755.9000 79.5200
PAN1 03:40:05 14.04.2021 0.0204 0.0229 0.7180 0.0200 0.0436 0.0070 0.0018 0.0048 74.3000 0.6000 7.3250 0.0048 755.8750 80.8650
PAN1 04:00:05 14.04.2021 0.0237 0.0263 0.7196 0.0193 0.0467 0.0072 0.0014 0.0055 227.8000 0.8250 7.1750 0.0055 755.7100 81.4500
PAN1 04:20:04 14.04.2021 0.0216 0.0240 0.6904 0.0149 0.0469 0.0064 0.0017 0.0052 55.8000 1.2650 7.0650 0.0052 755.6350 81.6750
PAN1 04:40:05 14.04.2021 0.0235 0.0270 0.6841 0.0150 0.0457 0.0059 0.0023 0.0053 62.0000 1.0350 6.7350 0.0053 755.6000 82.6900
PAN1 05:00:05 14.04.2021 0.0221 0.0261 0.6842 0.0146 0.0457 0.0076 0.0021 0.0047 112.3500 1.6600 6.4250 0.0047 755.6000 83.1200
PAN1 05:20:05 14.04.2021 0.0200 0.0238 0.6819 0.0131 0.0451 0.0083 0.0019 0.0048 53.3000 1.8400 6.4250 0.0048 755.5250 83.9650
PAN1 05:40:04 14.04.2021 0.0203 0.0241 0.6760 0.0112 0.0459 0.0061 0.0021 0.0054 104.0000 0.7400 6.7050 0.0054 755.2800 83.5250
PAN1 06:00:04 14.04.2021 0.0223 0.0260 0.7705 0.0136 0.0448 0.0085 0.0019 0.0039 166.7500 0.3300 6.5650 0.0039 755.1000 83.0050
PAN1 06:20:04 14.04.2021 0.0225 0.0266 0.8868 0.0173 0.0476 0.0089 0.0018 0.0050 296.3000 1.0350 6.4900 0.0050 755.2300 83.7400
PAN1 06:40:04 14.04.2021 0.0263 0.0319 0.9236 0.0154 0.0493 0.0077 0.0020 0.0056 101.0500 0.4950 6.4100 0.0056 755.4400 84.2750
PAN1 07:00:05 14.04.2021 0.0421 0.0491 0.8521 0.0156 0.0522 0.0084 0.0017 0.0039 81.6500 0.7000 6.6550 0.0039 755.5100 84.0800
PAN1 07:20:04 14.04.2021 0.0288 0.0342 1.0153 0.0139 0.0588 0.0082 0.0022 0.0052 96.2500 0.6350 7.0300 0.0052 755.4600 83.1150
PAN1 07:40:05 14.04.2021 0.0202 0.0266 0.9233 0.0096 0.0664 0.0069 0.0024 0.0060 106.2500 0.8750 7.5800 0.0060 755.3450 80.7450
PAN1 08:00:04 14.04.2021 0.0199 0.0280 0.9956 0.0081 0.0747 0.0071 0.0020 0.0042 88.8500 0.5050 8.0800 0.0042 755.3000 78.8200
PAN1 08:20:04 14.04.2021 0.0195 0.0248 0.9376 0.0081 0.0779 0.0089 0.0021 0.0046 136.8500 0.5050 8.5150 0.0046 755.3000 76.9650
PAN1 08:40:04 14.04.2021 0.0208 0.0250 0.9021 0.0074 0.0788 0.0073 0.0018 0.0050 93.4500 0.4150 9.0050 0.0050 755.2100 75.7100
PAN1 09:00:05 14.04.2021 0.0206 0.0253 0.8707 0.0028 0.0818 0.0066 0.0021 0.0051 87.9000 0.4950 9.6350 0.0051 755.2000 72.7200
PAN1 09:20:04 14.04.2021 0.0226 0.0278 0.8309 0.0077 0.0816 0.0085 0.0021 0.0054 109.1500 0.5800 10.1500 0.0054 755.1050 70.5200
PAN1 09:40:05 14.04.2021 0.0170 0.0199 0.7750 0.0172 0.0858 0.0074 0.0020 0.0061 69.3000 1.3800 10.6300 0.0061 755.0300 65.7450
PAN1 10:00:04 14.04.2021 0.0172 0.0195 0.7516 0.0189 0.0878 0.0059 0.0024 0.0037 104.1500 1.0600 11.2850 0.0037 754.9550 60.5400
PAN1 10:20:05 14.04.2021 0.0173 0.0209 0.7318 0.0174 0.0859 0.0067 0.0021 0.0039 111.2000 1.2300 11.7000 0.0039 754.8400 57.5500
PAN1 10:40:04 14.04.2021 0.0186 0.0209 0.7136 0.0183 0.0817 0.0084 0.0020 0.0049 134.4500 0.7950 12.2050 0.0049 754.7300 55.8500
PAN1 11:00:04 14.04.2021 0.0190 0.0210 0.6912 0.0123 0.0781 0.0079 0.0022 0.0042 173.7500 0.8900 12.5250 0.0042 754.6300 52.8500
PAN1 11:20:04 14.04.2021 0.0209 0.0251 0.6870 0.0127 0.0756 0.0078 0.0024 0.0055 142.9500 0.9950 12.4600 0.0055 754.5550 54.0950
PAN1 11:40:04 14.04.2021 0.0208 0.0242 0.6802 0.0199 0.0741 0.0083 0.0021 0.0045 150.1500 1.1000 12.2500 0.0045 754.4450 55.2550
PAN1 12:00:05 14.04.2021 0.0184 0.0205 0.6684 0.0175 0.0722 0.0066 0.0028 0.0045 127.3500 1.0250 12.3950 0.0045 754.3250 54.9350
PAN1 12:20:04 14.04.2021 0.0213 0.0237 0.6820 0.0213 0.0708 0.0071 0.0024 0.0059 115.2000 0.6500 12.5200 0.0059 754.1650 54.5150
PAN1 12:40:04 14.04.2021 0.0159 0.0177 0.6578 0.0195 0.0690 0.0094 0.0018 0.0055 215.7000 1.1650 12.2000 0.0055 754.0950 54.9200
PAN1 13:00:04 14.04.2021 0.0191 0.0211 0.6646 0.0166 0.0673 0.0073 0.0023 0.0062 78.4500 1.3650 11.9950 0.0062 753.9550 55.5200
PAN1 13:20:04 14.04.2021 0.0162 0.0196 0.6748 0.0163 0.0661 0.0074 0.0020 0.0053 122.1000 1.2100 11.9700 0.0053 753.8550 54.7250
PAN1 13:40:04 14.04.2021 0.0190 0.0215 0.6752 0.0160 0.0645 0.0086 0.0020 0.0036 140.0500 1.1500 11.9650 0.0036 753.8000 54.7000
PAN1 14:00:05 14.04.2021 0.0189 0.0226 0.6915 0.0200 0.0637 0.0067 0.0025 0.0046 138.0000 1.4250 11.9500 0.0046 753.8000 55.8100
PAN1 14:20:04 14.04.2021 0.0201 0.0228 0.6985 0.0165 0.0653 0.0060 0.0017 0.0049 107.0000 1.7750 11.7750 0.0049 753.7550 57.0450
PAN1 14:40:05 14.04.2021 0.0195 0.0219 0.6957 0.0228 0.0650 0.0064 0.0019 0.0061 128.1500 1.7950 11.5650 0.0061 753.6350 58.8300
PAN1 15:00:04 14.04.2021 0.0171 0.0194 0.6979 0.0214 0.0659 0.0065 0.0024 0.0058 122.0000 1.4700 11.3650 0.0058 753.5950 60.4850
PAN1 15:20:04 14.04.2021 0.0186 0.0209 0.7150 0.0223 0.0679 0.0077 0.0017 0.0051 156.8000 1.8250 11.2500 0.0051 753.5050 61.5300
PAN1 15:40:05 14.04.2021 0.0214 0.0240 0.7342 0.0232 0.0688 0.0073 0.0020 0.0048 126.4500 1.7250 11.2000 0.0048 753.4350 63.9900